sensor_id;sensor_type;location;lat;lon;timestamp;P1;durP1;ratioP1;P2;durP2;ratioP2
29788;SDS011;64899;42.660;23.268;2023-04-07T00:01:19;17.13;;;11.10;;
29788;SDS011;64899;42.660;23.268;2023-04-07T00:03:45;15.32;;;10.07;;
29788;SDS011;64899;42.660;23.268;2023-04-07T00:06:11;17.73;;;11.38;;
29788;SDS011;64899;42.660;23.268;2023-04-07T00:08:36;16.80;;;10.45;;
29788;SDS011;64899;42.660;23.268;2023-04-07T00:11:03;16.15;;;10.23;;
29788;SDS011;64899;42.660;23.268;2023-04-07T00:13:28;19.30;;;10.20;;
29788;SDS011;64899;42.660;23.268;2023-04-07T00:15:54;13.70;;;10.20;;
29788;SDS011;64899;42.660;23.268;2023-04-07T00:18:19;19.05;;;10.63;;
29788;SDS011;64899;42.660;23.268;2023-04-07T00:20:45;14.35;;;9.95;;
29788;SDS011;64899;42.660;23.268;2023-04-07T00:23:10;15.23;;;10.30;;
29788;SDS011;64899;42.660;23.268;2023-04-07T00:25:36;15.07;;;10.02;;
29788;SDS011;64899;42.660;23.268;2023-04-07T00:28:01;17.35;;;10.07;;
29788;SDS011;64899;42.660;23.268;2023-04-07T00:30:26;14.50;;;10.15;;
29788;SDS011;64899;42.660;23.268;2023-04-07T00:32:52;14.25;;;9.95;;
29788;SDS011;64899;42.660;23.268;2023-04-07T00:35:17;18.23;;;10.00;;
29788;SDS011;64899;42.660;23.268;2023-04-07T00:37:43;14.50;;;10.57;;
29788;SDS011;64899;42.660;23.268;2023-04-07T00:40:08;16.55;;;10.82;;
29788;SDS011;64899;42.660;23.268;2023-04-07T00:42:34;16.95;;;10.25;;
29788;SDS011;64899;42.660;23.268;2023-04-07T00:44:59;16.98;;;10.00;;
29788;SDS011;64899;42.660;23.268;2023-04-07T00:47:25;15.50;;;10.95;;
29788;SDS011;64899;42.660;23.268;2023-04-07T00:49:50;15.90;;;11.05;;
29788;SDS011;64899;42.660;23.268;2023-04-07T00:52:16;14.98;;;10.23;;
29788;SDS011;64899;42.660;23.268;2023-04-07T00:54:41;15.38;;;9.65;;
29788;SDS011;64899;42.660;23.268;2023-04-07T00:57:09;14.68;;;9.68;;
29788;SDS011;64899;42.660;23.268;2023-04-07T00:59:34;16.42;;;11.07;;
29788;SDS011;64899;42.660;23.268;2023-04-07T01:02:10;19.67;;;10.80;;
29788;SDS011;64899;42.660;23.268;2023-04-07T01:04:43;17.60;;;10.52;;
29788;SDS011;64899;42.660;23.268;2023-04-07T01:07:22;14.10;;;10.48;;
29788;SDS011;64899;42.660;23.268;2023-04-07T01:10:00;16.23;;;10.65;;
29788;SDS011;64899;42.660;23.268;2023-04-07T01:14:57;15.00;;;9.63;;
29788;SDS011;64899;42.660;23.268;2023-04-07T01:17:25;15.48;;;9.63;;
29788;SDS011;64899;42.660;23.268;2023-04-07T01:19:55;15.90;;;10.35;;
29788;SDS011;64899;42.660;23.268;2023-04-07T01:22:42;16.85;;;9.70;;
29788;SDS011;64899;42.660;23.268;2023-04-07T01:30:33;17.10;;;10.63;;
29788;SDS011;64899;42.660;23.268;2023-04-07T01:33:00;15.25;;;10.23;;
29788;SDS011;64899;42.660;23.268;2023-04-07T01:35:26;14.80;;;9.50;;
29788;SDS011;64899;42.660;23.268;2023-04-07T01:37:55;18.00;;;9.25;;
29788;SDS011;64899;42.660;23.268;2023-04-07T01:40:21;20.67;;;9.82;;
29788;SDS011;64899;42.660;23.268;2023-04-07T01:42:47;12.95;;;9.40;;
29788;SDS011;64899;42.660;23.268;2023-04-07T01:45:15;14.43;;;9.35;;
29788;SDS011;64899;42.660;23.268;2023-04-07T01:47:41;14.00;;;8.73;;
29788;SDS011;64899;42.660;23.268;2023-04-07T01:50:06;15.13;;;8.85;;
29788;SDS011;64899;42.660;23.268;2023-04-07T01:52:34;17.27;;;9.80;;
29788;SDS011;64899;42.660;23.268;2023-04-07T01:55:01;14.82;;;9.05;;
29788;SDS011;64899;42.660;23.268;2023-04-07T01:57:27;16.00;;;9.68;;
29788;SDS011;64899;42.660;23.268;2023-04-07T01:59:53;13.48;;;9.30;;
29788;SDS011;64899;42.660;23.268;2023-04-07T02:02:18;14.23;;;9.57;;
29788;SDS011;64899;42.660;23.268;2023-04-07T02:04:48;15.63;;;10.05;;
29788;SDS011;64899;42.660;23.268;2023-04-07T02:07:20;13.23;;;9.43;;
29788;SDS011;64899;42.660;23.268;2023-04-07T02:09:49;16.52;;;9.48;;
29788;SDS011;64899;42.660;23.268;2023-04-07T02:12:15;13.32;;;8.60;;
29788;SDS011;64899;42.660;23.268;2023-04-07T02:14:41;15.10;;;9.05;;
29788;SDS011;64899;42.660;23.268;2023-04-07T02:17:07;12.95;;;8.50;;
29788;SDS011;64899;42.660;23.268;2023-04-07T02:19:33;12.60;;;8.55;;
29788;SDS011;64899;42.660;23.268;2023-04-07T02:22:01;13.13;;;8.63;;
29788;SDS011;64899;42.660;23.268;2023-04-07T02:24:27;15.82;;;9.18;;
29788;SDS011;64899;42.660;23.268;2023-04-07T02:26:53;15.50;;;8.77;;
29788;SDS011;64899;42.660;23.268;2023-04-07T02:29:18;10.50;;;7.82;;
29788;SDS011;64899;42.660;23.268;2023-04-07T02:31:44;15.63;;;7.72;;
29788;SDS011;64899;42.660;23.268;2023-04-07T02:34:09;11.15;;;8.45;;
29788;SDS011;64899;42.660;23.268;2023-04-07T02:36:35;12.00;;;7.57;;
29788;SDS011;64899;42.660;23.268;2023-04-07T02:39:00;12.20;;;7.93;;
29788;SDS011;64899;42.660;23.268;2023-04-07T02:41:26;12.30;;;8.13;;
29788;SDS011;64899;42.660;23.268;2023-04-07T02:43:51;12.90;;;8.40;;
29788;SDS011;64899;42.660;23.268;2023-04-07T02:46:17;11.70;;;7.72;;
29788;SDS011;64899;42.660;23.268;2023-04-07T02:48:42;13.57;;;8.52;;
29788;SDS011;64899;42.660;23.268;2023-04-07T02:51:07;17.15;;;9.02;;
29788;SDS011;64899;42.660;23.268;2023-04-07T02:53:33;14.05;;;8.82;;
29788;SDS011;64899;42.660;23.268;2023-04-07T02:55:58;13.07;;;8.80;;
29788;SDS011;64899;42.660;23.268;2023-04-07T02:58:24;12.15;;;8.70;;
29788;SDS011;64899;42.660;23.268;2023-04-07T03:00:49;14.45;;;9.43;;
29788;SDS011;64899;42.660;23.268;2023-04-07T03:03:15;10.75;;;8.43;;
29788;SDS011;64899;42.660;23.268;2023-04-07T03:05:40;11.68;;;8.27;;
29788;SDS011;64899;42.660;23.268;2023-04-07T03:08:06;11.02;;;7.63;;
29788;SDS011;64899;42.660;23.268;2023-04-07T03:10:31;13.77;;;8.82;;
29788;SDS011;64899;42.660;23.268;2023-04-07T03:12:56;13.52;;;9.38;;
29788;SDS011;64899;42.660;23.268;2023-04-07T03:15:22;15.82;;;9.18;;
29788;SDS011;64899;42.660;23.268;2023-04-07T03:17:47;11.57;;;8.32;;
29788;SDS011;64899;42.660;23.268;2023-04-07T03:20:13;18.55;;;8.70;;
29788;SDS011;64899;42.660;23.268;2023-04-07T03:22:38;13.77;;;8.73;;
29788;SDS011;64899;42.660;23.268;2023-04-07T03:25:03;13.95;;;9.00;;
29788;SDS011;64899;42.660;23.268;2023-04-07T03:27:29;12.23;;;7.93;;
29788;SDS011;64899;42.660;23.268;2023-04-07T03:29:55;15.30;;;8.18;;
29788;SDS011;64899;42.660;23.268;2023-04-07T03:32:21;13.05;;;8.65;;
29788;SDS011;64899;42.660;23.268;2023-04-07T03:34:46;14.07;;;8.65;;
29788;SDS011;64899;42.660;23.268;2023-04-07T03:37:12;13.13;;;8.18;;
29788;SDS011;64899;42.660;23.268;2023-04-07T03:39:37;12.45;;;8.07;;
29788;SDS011;64899;42.660;23.268;2023-04-07T03:42:04;11.95;;;8.13;;
29788;SDS011;64899;42.660;23.268;2023-04-07T03:44:29;12.10;;;8.85;;
29788;SDS011;64899;42.660;23.268;2023-04-07T03:46:54;16.02;;;8.80;;
29788;SDS011;64899;42.660;23.268;2023-04-07T03:49:20;16.20;;;9.57;;
29788;SDS011;64899;42.660;23.268;2023-04-07T03:51:46;15.93;;;9.07;;
29788;SDS011;64899;42.660;23.268;2023-04-07T03:54:11;15.98;;;8.80;;
29788;SDS011;64899;42.660;23.268;2023-04-07T03:56:36;17.38;;;9.10;;
29788;SDS011;64899;42.660;23.268;2023-04-07T03:59:02;12.38;;;8.93;;
29788;SDS011;64899;42.660;23.268;2023-04-07T04:01:27;12.43;;;8.88;;
29788;SDS011;64899;42.660;23.268;2023-04-07T04:03:53;12.25;;;8.68;;
29788;SDS011;64899;42.660;23.268;2023-04-07T04:06:18;14.65;;;8.15;;
29788;SDS011;64899;42.660;23.268;2023-04-07T04:08:43;13.85;;;8.50;;
29788;SDS011;64899;42.660;23.268;2023-04-07T04:11:09;13.50;;;8.10;;
29788;SDS011;64899;42.660;23.268;2023-04-07T04:13:34;15.63;;;8.60;;
29788;SDS011;64899;42.660;23.268;2023-04-07T04:16:00;13.98;;;8.25;;
29788;SDS011;64899;42.660;23.268;2023-04-07T04:18:26;14.07;;;9.40;;
29788;SDS011;64899;42.660;23.268;2023-04-07T04:20:51;11.65;;;8.35;;
29788;SDS011;64899;42.660;23.268;2023-04-07T04:23:16;15.43;;;9.02;;
29788;SDS011;64899;42.660;23.268;2023-04-07T04:25:42;13.45;;;8.75;;
29788;SDS011;64899;42.660;23.268;2023-04-07T04:28:07;15.82;;;9.30;;
29788;SDS011;64899;42.660;23.268;2023-04-07T04:30:32;15.07;;;8.27;;
29788;SDS011;64899;42.660;23.268;2023-04-07T04:32:58;13.57;;;8.60;;
29788;SDS011;64899;42.660;23.268;2023-04-07T04:35:23;11.52;;;7.25;;
29788;SDS011;64899;42.660;23.268;2023-04-07T04:37:50;13.95;;;8.13;;
29788;SDS011;64899;42.660;23.268;2023-04-07T04:40:15;12.32;;;8.07;;
29788;SDS011;64899;42.660;23.268;2023-04-07T04:42:40;13.35;;;8.00;;
29788;SDS011;64899;42.660;23.268;2023-04-07T04:45:06;13.07;;;8.10;;
29788;SDS011;64899;42.660;23.268;2023-04-07T04:47:32;13.93;;;8.82;;
29788;SDS011;64899;42.660;23.268;2023-04-07T04:49:57;12.45;;;8.32;;
29788;SDS011;64899;42.660;23.268;2023-04-07T04:52:23;16.02;;;8.40;;
29788;SDS011;64899;42.660;23.268;2023-04-07T04:54:48;13.88;;;7.60;;
29788;SDS011;64899;42.660;23.268;2023-04-07T04:57:13;11.95;;;7.80;;
29788;SDS011;64899;42.660;23.268;2023-04-07T04:59:40;11.80;;;7.47;;
29788;SDS011;64899;42.660;23.268;2023-04-07T05:02:06;11.90;;;8.02;;
29788;SDS011;64899;42.660;23.268;2023-04-07T05:04:32;13.02;;;8.30;;
29788;SDS011;64899;42.660;23.268;2023-04-07T05:06:57;10.57;;;7.68;;
29788;SDS011;64899;42.660;23.268;2023-04-07T05:09:22;12.10;;;8.13;;
29788;SDS011;64899;42.660;23.268;2023-04-07T05:11:48;15.52;;;8.30;;
29788;SDS011;64899;42.660;23.268;2023-04-07T05:14:13;13.57;;;8.45;;
29788;SDS011;64899;42.660;23.268;2023-04-07T05:16:39;11.93;;;7.70;;
29788;SDS011;64899;42.660;23.268;2023-04-07T05:19:04;13.00;;;8.60;;
29788;SDS011;64899;42.660;23.268;2023-04-07T05:21:30;13.65;;;7.40;;
29788;SDS011;64899;42.660;23.268;2023-04-07T05:23:55;11.10;;;7.60;;
29788;SDS011;64899;42.660;23.268;2023-04-07T05:26:21;11.65;;;7.72;;
29788;SDS011;64899;42.660;23.268;2023-04-07T05:28:46;11.48;;;7.32;;
29788;SDS011;64899;42.660;23.268;2023-04-07T05:31:11;12.13;;;7.57;;
29788;SDS011;64899;42.660;23.268;2023-04-07T05:33:37;12.18;;;7.68;;
29788;SDS011;64899;42.660;23.268;2023-04-07T05:36:02;11.60;;;7.22;;
29788;SDS011;64899;42.660;23.268;2023-04-07T05:38:28;10.02;;;6.70;;
29788;SDS011;64899;42.660;23.268;2023-04-07T05:40:53;10.38;;;6.75;;
29788;SDS011;64899;42.660;23.268;2023-04-07T05:43:18;11.32;;;7.43;;
29788;SDS011;64899;42.660;23.268;2023-04-07T05:45:44;12.05;;;7.43;;
29788;SDS011;64899;42.660;23.268;2023-04-07T05:48:09;13.05;;;7.95;;
29788;SDS011;64899;42.660;23.268;2023-04-07T05:50:35;15.52;;;8.30;;
29788;SDS011;64899;42.660;23.268;2023-04-07T05:53:01;14.88;;;8.23;;
29788;SDS011;64899;42.660;23.268;2023-04-07T05:55:26;11.50;;;7.50;;
29788;SDS011;64899;42.660;23.268;2023-04-07T05:57:51;10.02;;;7.18;;
29788;SDS011;64899;42.660;23.268;2023-04-07T06:00:17;10.98;;;7.03;;
29788;SDS011;64899;42.660;23.268;2023-04-07T06:02:43;10.40;;;6.63;;
29788;SDS011;64899;42.660;23.268;2023-04-07T06:05:09;12.90;;;6.90;;
29788;SDS011;64899;42.660;23.268;2023-04-07T06:07:35;12.15;;;7.25;;
29788;SDS011;64899;42.660;23.268;2023-04-07T06:10:00;11.05;;;7.07;;
29788;SDS011;64899;42.660;23.268;2023-04-07T06:12:25;12.00;;;7.13;;
29788;SDS011;64899;42.660;23.268;2023-04-07T06:14:51;10.00;;;6.95;;
29788;SDS011;64899;42.660;23.268;2023-04-07T06:17:18;13.80;;;6.90;;
29788;SDS011;64899;42.660;23.268;2023-04-07T06:19:43;10.27;;;6.90;;
29788;SDS011;64899;42.660;23.268;2023-04-07T06:22:09;14.30;;;8.07;;
29788;SDS011;64899;42.660;23.268;2023-04-07T06:24:35;12.05;;;7.60;;
29788;SDS011;64899;42.660;23.268;2023-04-07T06:27:00;8.63;;;6.93;;
29788;SDS011;64899;42.660;23.268;2023-04-07T06:29:27;9.82;;;6.95;;
29788;SDS011;64899;42.660;23.268;2023-04-07T06:31:53;13.88;;;7.47;;
29788;SDS011;64899;42.660;23.268;2023-04-07T06:34:18;15.15;;;7.75;;
29788;SDS011;64899;42.660;23.268;2023-04-07T06:36:44;10.43;;;7.00;;
29788;SDS011;64899;42.660;23.268;2023-04-07T06:39:09;9.35;;;6.80;;
29788;SDS011;64899;42.660;23.268;2023-04-07T06:41:35;12.82;;;7.05;;
29788;SDS011;64899;42.660;23.268;2023-04-07T06:44:00;11.65;;;6.32;;
29788;SDS011;64899;42.660;23.268;2023-04-07T06:46:26;12.20;;;7.18;;
29788;SDS011;64899;42.660;23.268;2023-04-07T06:48:51;11.13;;;7.05;;
29788;SDS011;64899;42.660;23.268;2023-04-07T06:51:17;12.43;;;7.35;;
29788;SDS011;64899;42.660;23.268;2023-04-07T06:53:42;11.02;;;6.80;;
29788;SDS011;64899;42.660;23.268;2023-04-07T06:56:09;10.40;;;6.85;;
29788;SDS011;64899;42.660;23.268;2023-04-07T06:58:35;14.90;;;6.82;;
29788;SDS011;64899;42.660;23.268;2023-04-07T07:01:01;9.20;;;6.85;;
29788;SDS011;64899;42.660;23.268;2023-04-07T07:03:29;10.55;;;7.20;;
29788;SDS011;64899;42.660;23.268;2023-04-07T07:05:55;11.30;;;6.85;;
29788;SDS011;64899;42.660;23.268;2023-04-07T07:08:27;11.55;;;6.75;;
29788;SDS011;64899;42.660;23.268;2023-04-07T07:10:53;11.65;;;7.25;;
29788;SDS011;64899;42.660;23.268;2023-04-07T07:13:20;11.23;;;6.47;;
29788;SDS011;64899;42.660;23.268;2023-04-07T07:15:47;14.30;;;7.72;;
29788;SDS011;64899;42.660;23.268;2023-04-07T07:18:13;10.77;;;7.35;;
29788;SDS011;64899;42.660;23.268;2023-04-07T07:20:38;9.38;;;6.80;;
29788;SDS011;64899;42.660;23.268;2023-04-07T07:23:03;10.43;;;6.90;;
29788;SDS011;64899;42.660;23.268;2023-04-07T07:25:29;14.73;;;7.00;;
29788;SDS011;64899;42.660;23.268;2023-04-07T07:27:54;9.40;;;6.30;;
29788;SDS011;64899;42.660;23.268;2023-04-07T07:30:20;10.70;;;6.75;;
29788;SDS011;64899;42.660;23.268;2023-04-07T07:32:46;10.25;;;6.20;;
29788;SDS011;64899;42.660;23.268;2023-04-07T07:35:11;12.40;;;6.88;;
29788;SDS011;64899;42.660;23.268;2023-04-07T07:37:37;9.95;;;6.30;;
29788;SDS011;64899;42.660;23.268;2023-04-07T07:40:02;8.35;;;6.32;;
29788;SDS011;64899;42.660;23.268;2023-04-07T07:42:28;12.68;;;7.30;;
29788;SDS011;64899;42.660;23.268;2023-04-07T07:44:55;12.63;;;7.20;;
29788;SDS011;64899;42.660;23.268;2023-04-07T07:47:20;7.85;;;6.03;;
29788;SDS011;64899;42.660;23.268;2023-04-07T07:49:46;10.63;;;6.35;;
29788;SDS011;64899;42.660;23.268;2023-04-07T07:52:11;10.98;;;6.20;;
29788;SDS011;64899;42.660;23.268;2023-04-07T07:54:36;12.27;;;6.25;;
29788;SDS011;64899;42.660;23.268;2023-04-07T07:57:02;10.65;;;6.43;;
29788;SDS011;64899;42.660;23.268;2023-04-07T07:59:28;9.27;;;6.20;;
29788;SDS011;64899;42.660;23.268;2023-04-07T08:01:54;11.38;;;6.07;;
29788;SDS011;64899;42.660;23.268;2023-04-07T08:04:20;12.05;;;6.50;;
29788;SDS011;64899;42.660;23.268;2023-04-07T08:06:47;10.98;;;6.82;;
29788;SDS011;64899;42.660;23.268;2023-04-07T08:09:12;10.98;;;6.28;;
29788;SDS011;64899;42.660;23.268;2023-04-07T08:11:38;10.60;;;5.88;;
29788;SDS011;64899;42.660;23.268;2023-04-07T08:14:03;10.85;;;6.53;;
29788;SDS011;64899;42.660;23.268;2023-04-07T08:16:28;10.95;;;6.05;;
29788;SDS011;64899;42.660;23.268;2023-04-07T08:18:54;9.77;;;6.10;;
29788;SDS011;64899;42.660;23.268;2023-04-07T08:21:20;12.32;;;6.35;;
29788;SDS011;64899;42.660;23.268;2023-04-07T08:23:45;9.98;;;5.45;;
29788;SDS011;64899;42.660;23.268;2023-04-07T08:26:10;8.80;;;6.03;;
29788;SDS011;64899;42.660;23.268;2023-04-07T08:28:36;11.70;;;6.40;;
29788;SDS011;64899;42.660;23.268;2023-04-07T08:31:01;11.32;;;6.13;;
29788;SDS011;64899;42.660;23.268;2023-04-07T08:33:27;9.93;;;6.22;;
29788;SDS011;64899;42.660;23.268;2023-04-07T08:35:52;8.75;;;6.57;;
29788;SDS011;64899;42.660;23.268;2023-04-07T08:38:17;10.68;;;6.30;;
29788;SDS011;64899;42.660;23.268;2023-04-07T08:40:43;12.07;;;6.88;;
29788;SDS011;64899;42.660;23.268;2023-04-07T08:43:08;8.73;;;6.70;;
29788;SDS011;64899;42.660;23.268;2023-04-07T08:45:38;9.65;;;6.05;;
29788;SDS011;64899;42.660;23.268;2023-04-07T08:48:11;11.52;;;6.93;;
29788;SDS011;64899;42.660;23.268;2023-04-07T08:50:42;9.50;;;6.00;;
29788;SDS011;64899;42.660;23.268;2023-04-07T08:53:08;8.15;;;5.60;;
29788;SDS011;64899;42.660;23.268;2023-04-07T08:55:38;10.45;;;5.28;;
29788;SDS011;64899;42.660;23.268;2023-04-07T08:58:04;7.90;;;5.65;;
29788;SDS011;64899;42.660;23.268;2023-04-07T09:00:30;10.02;;;6.35;;
29788;SDS011;64899;42.660;23.268;2023-04-07T09:02:55;8.07;;;5.68;;
29788;SDS011;64899;42.660;23.268;2023-04-07T09:05:21;8.45;;;5.20;;
29788;SDS011;64899;42.660;23.268;2023-04-07T09:07:49;8.80;;;5.65;;
29788;SDS011;64899;42.660;23.268;2023-04-07T09:10:14;8.77;;;6.05;;
29788;SDS011;64899;42.660;23.268;2023-04-07T09:12:40;9.82;;;6.35;;
29788;SDS011;64899;42.660;23.268;2023-04-07T09:15:06;9.25;;;5.90;;
29788;SDS011;64899;42.660;23.268;2023-04-07T09:17:31;9.15;;;5.95;;
29788;SDS011;64899;42.660;23.268;2023-04-07T09:19:58;9.40;;;5.60;;
29788;SDS011;64899;42.660;23.268;2023-04-07T09:22:38;9.85;;;6.25;;
29788;SDS011;64899;42.660;23.268;2023-04-07T09:25:18;10.48;;;5.65;;
29788;SDS011;64899;42.660;23.268;2023-04-07T09:28:00;10.88;;;5.95;;
29788;SDS011;64899;42.660;23.268;2023-04-07T09:30:27;8.95;;;6.13;;
29788;SDS011;64899;42.660;23.268;2023-04-07T09:32:54;9.25;;;5.85;;
29788;SDS011;64899;42.660;23.268;2023-04-07T09:35:19;9.55;;;6.60;;
29788;SDS011;64899;42.660;23.268;2023-04-07T09:37:59;9.70;;;6.65;;
29788;SDS011;64899;42.660;23.268;2023-04-07T09:40:34;8.70;;;6.50;;
29788;SDS011;64899;42.660;23.268;2023-04-07T09:43:02;13.75;;;6.13;;
29788;SDS011;64899;42.660;23.268;2023-04-07T09:45:28;10.82;;;7.15;;
29788;SDS011;64899;42.660;23.268;2023-04-07T09:47:56;11.25;;;6.57;;
29788;SDS011;64899;42.660;23.268;2023-04-07T09:50:31;8.52;;;6.78;;
29788;SDS011;64899;42.660;23.268;2023-04-07T09:53:06;10.95;;;7.38;;
29788;SDS011;64899;42.660;23.268;2023-04-07T09:55:31;8.68;;;6.18;;
29788;SDS011;64899;42.660;23.268;2023-04-07T09:57:57;10.68;;;7.35;;
29788;SDS011;64899;42.660;23.268;2023-04-07T10:00:23;7.80;;;6.13;;
29788;SDS011;64899;42.660;23.268;2023-04-07T10:02:49;7.35;;;5.78;;
29788;SDS011;64899;42.660;23.268;2023-04-07T10:05:15;9.55;;;6.80;;
29788;SDS011;64899;42.660;23.268;2023-04-07T10:07:41;9.90;;;5.80;;
29788;SDS011;64899;42.660;23.268;2023-04-07T10:10:07;8.23;;;6.53;;
29788;SDS011;64899;42.660;23.268;2023-04-07T10:12:33;8.15;;;6.38;;
29788;SDS011;64899;42.660;23.268;2023-04-07T10:14:59;9.15;;;6.82;;
29788;SDS011;64899;42.660;23.268;2023-04-07T10:17:26;9.88;;;6.55;;
29788;SDS011;64899;42.660;23.268;2023-04-07T10:19:52;9.07;;;6.82;;
29788;SDS011;64899;42.660;23.268;2023-04-07T10:22:18;10.00;;;6.45;;
29788;SDS011;64899;42.660;23.268;2023-04-07T10:24:58;8.93;;;5.75;;
29788;SDS011;64899;42.660;23.268;2023-04-07T10:27:36;9.60;;;6.53;;
29788;SDS011;64899;42.660;23.268;2023-04-07T10:30:05;9.05;;;6.57;;
29788;SDS011;64899;42.660;23.268;2023-04-07T10:32:31;12.57;;;6.45;;
29788;SDS011;64899;42.660;23.268;2023-04-07T10:35:10;9.95;;;6.60;;
29788;SDS011;64899;42.660;23.268;2023-04-07T10:37:35;8.98;;;5.55;;
29788;SDS011;64899;42.660;23.268;2023-04-07T10:42:50;8.65;;;6.18;;
29788;SDS011;64899;42.660;23.268;2023-04-07T10:45:16;10.65;;;6.10;;
29788;SDS011;64899;42.660;23.268;2023-04-07T10:48:11;10.85;;;7.05;;
29788;SDS011;64899;42.660;23.268;2023-04-07T10:50:37;11.05;;;7.10;;
29788;SDS011;64899;42.660;23.268;2023-04-07T10:53:06;8.85;;;6.50;;
29788;SDS011;64899;42.660;23.268;2023-04-07T11:03:21;9.50;;;7.05;;
29788;SDS011;64899;42.660;23.268;2023-04-07T11:05:47;10.63;;;7.40;;
29788;SDS011;64899;42.660;23.268;2023-04-07T11:08:12;9.63;;;7.65;;
29788;SDS011;64899;42.660;23.268;2023-04-07T11:10:37;10.02;;;7.28;;
29788;SDS011;64899;42.660;23.268;2023-04-07T11:13:04;11.45;;;7.53;;
29788;SDS011;64899;42.660;23.268;2023-04-07T11:15:30;11.32;;;6.93;;
29788;SDS011;64899;42.660;23.268;2023-04-07T11:18:11;11.65;;;6.95;;
29788;SDS011;64899;42.660;23.268;2023-04-07T11:20:51;13.63;;;7.22;;
29788;SDS011;64899;42.660;23.268;2023-04-07T11:23:18;11.15;;;7.05;;
29788;SDS011;64899;42.660;23.268;2023-04-07T11:25:46;11.40;;;6.65;;
29788;SDS011;64899;42.660;23.268;2023-04-07T11:28:15;12.23;;;6.90;;
29788;SDS011;64899;42.660;23.268;2023-04-07T11:30:44;11.07;;;7.45;;
29788;SDS011;64899;42.660;23.268;2023-04-07T11:33:24;12.60;;;7.50;;
29788;SDS011;64899;42.660;23.268;2023-04-07T11:35:55;12.70;;;6.80;;
29788;SDS011;64899;42.660;23.268;2023-04-07T11:38:25;12.20;;;7.60;;
29788;SDS011;64899;42.660;23.268;2023-04-07T11:40:53;11.15;;;7.30;;
29788;SDS011;64899;42.660;23.268;2023-04-07T11:43:20;12.23;;;8.15;;
29788;SDS011;64899;42.660;23.268;2023-04-07T11:46:09;14.50;;;8.32;;
29788;SDS011;64899;42.660;23.268;2023-04-07T11:48:37;10.02;;;7.53;;
29788;SDS011;64899;42.660;23.268;2023-04-07T11:51:04;9.65;;;7.25;;
29788;SDS011;64899;42.660;23.268;2023-04-07T11:53:31;10.45;;;7.60;;
29788;SDS011;64899;42.660;23.268;2023-04-07T11:56:02;14.60;;;7.57;;
29788;SDS011;64899;42.660;23.268;2023-04-07T11:58:35;10.45;;;7.47;;
29788;SDS011;64899;42.660;23.268;2023-04-07T12:01:01;12.43;;;8.43;;
29788;SDS011;64899;42.660;23.268;2023-04-07T12:03:30;14.20;;;8.50;;
29788;SDS011;64899;42.660;23.268;2023-04-07T12:06:01;11.05;;;7.70;;
29788;SDS011;64899;42.660;23.268;2023-04-07T12:08:40;9.23;;;7.53;;
29788;SDS011;64899;42.660;23.268;2023-04-07T12:11:06;14.18;;;8.30;;
29788;SDS011;64899;42.660;23.268;2023-04-07T12:13:32;10.13;;;8.00;;
29788;SDS011;64899;42.660;23.268;2023-04-07T12:15:58;10.85;;;7.30;;
29788;SDS011;64899;42.660;23.268;2023-04-07T12:18:24;9.98;;;7.75;;
29788;SDS011;64899;42.660;23.268;2023-04-07T12:20:51;14.90;;;8.20;;
29788;SDS011;64899;42.660;23.268;2023-04-07T12:23:16;10.02;;;7.15;;
29788;SDS011;64899;42.660;23.268;2023-04-07T12:25:41;12.75;;;8.73;;
29788;SDS011;64899;42.660;23.268;2023-04-07T12:28:07;12.07;;;7.72;;
29788;SDS011;64899;42.660;23.268;2023-04-07T12:30:32;10.50;;;6.95;;
29788;SDS011;64899;42.660;23.268;2023-04-07T12:32:58;11.73;;;7.55;;
29788;SDS011;64899;42.660;23.268;2023-04-07T12:35:23;10.52;;;7.75;;
29788;SDS011;64899;42.660;23.268;2023-04-07T12:37:48;13.00;;;8.32;;
29788;SDS011;64899;42.660;23.268;2023-04-07T12:40:15;14.45;;;7.07;;
29788;SDS011;64899;42.660;23.268;2023-04-07T12:42:41;12.35;;;7.63;;
29788;SDS011;64899;42.660;23.268;2023-04-07T12:45:07;15.00;;;8.30;;
29788;SDS011;64899;42.660;23.268;2023-04-07T12:47:33;9.18;;;7.28;;
29788;SDS011;64899;42.660;23.268;2023-04-07T12:49:58;10.68;;;7.30;;
29788;SDS011;64899;42.660;23.268;2023-04-07T12:52:23;9.18;;;6.95;;
29788;SDS011;64899;42.660;23.268;2023-04-07T12:54:49;11.15;;;7.00;;
29788;SDS011;64899;42.660;23.268;2023-04-07T12:57:15;9.27;;;6.53;;
29788;SDS011;64899;42.660;23.268;2023-04-07T12:59:40;10.27;;;7.38;;
29788;SDS011;64899;42.660;23.268;2023-04-07T13:02:06;11.63;;;7.30;;
29788;SDS011;64899;42.660;23.268;2023-04-07T13:04:32;9.80;;;7.22;;
29788;SDS011;64899;42.660;23.268;2023-04-07T13:06:58;9.38;;;6.82;;
29788;SDS011;64899;42.660;23.268;2023-04-07T13:09:26;13.27;;;7.50;;
29788;SDS011;64899;42.660;23.268;2023-04-07T13:11:52;9.13;;;7.55;;
29788;SDS011;64899;42.660;23.268;2023-04-07T13:14:17;13.30;;;7.43;;
29788;SDS011;64899;42.660;23.268;2023-04-07T13:16:42;11.63;;;8.38;;
29788;SDS011;64899;42.660;23.268;2023-04-07T13:19:08;11.77;;;7.35;;
29788;SDS011;64899;42.660;23.268;2023-04-07T13:21:34;10.73;;;7.50;;
29788;SDS011;64899;42.660;23.268;2023-04-07T13:23:59;13.68;;;8.57;;
29788;SDS011;64899;42.660;23.268;2023-04-07T13:26:25;12.18;;;8.05;;
29788;SDS011;64899;42.660;23.268;2023-04-07T13:28:52;12.02;;;7.18;;
29788;SDS011;64899;42.660;23.268;2023-04-07T13:31:18;11.38;;;8.15;;
29788;SDS011;64899;42.660;23.268;2023-04-07T13:33:45;15.23;;;9.40;;
29788;SDS011;64899;42.660;23.268;2023-04-07T13:36:11;12.93;;;8.10;;
29788;SDS011;64899;42.660;23.268;2023-04-07T13:38:36;10.88;;;8.25;;
29788;SDS011;64899;42.660;23.268;2023-04-07T13:41:02;14.75;;;9.05;;
29788;SDS011;64899;42.660;23.268;2023-04-07T13:43:28;10.70;;;8.15;;
29788;SDS011;64899;42.660;23.268;2023-04-07T13:45:53;10.90;;;8.15;;
29788;SDS011;64899;42.660;23.268;2023-04-07T13:48:20;10.40;;;7.32;;
29788;SDS011;64899;42.660;23.268;2023-04-07T13:50:45;14.23;;;7.97;;
29788;SDS011;64899;42.660;23.268;2023-04-07T13:53:11;12.43;;;7.88;;
29788;SDS011;64899;42.660;23.268;2023-04-07T13:55:36;10.98;;;8.05;;
29788;SDS011;64899;42.660;23.268;2023-04-07T13:58:01;12.82;;;8.30;;
29788;SDS011;64899;42.660;23.268;2023-04-07T14:00:27;13.02;;;8.13;;
29788;SDS011;64899;42.660;23.268;2023-04-07T14:02:52;12.15;;;8.13;;
29788;SDS011;64899;42.660;23.268;2023-04-07T14:05:19;11.43;;;9.10;;
29788;SDS011;64899;42.660;23.268;2023-04-07T14:07:45;12.45;;;8.27;;
29788;SDS011;64899;42.660;23.268;2023-04-07T14:10:11;13.05;;;8.80;;
29788;SDS011;64899;42.660;23.268;2023-04-07T14:12:36;14.68;;;9.15;;
29788;SDS011;64899;42.660;23.268;2023-04-07T14:15:02;14.85;;;9.05;;
29788;SDS011;64899;42.660;23.268;2023-04-07T14:17:28;12.52;;;8.60;;
29788;SDS011;64899;42.660;23.268;2023-04-07T14:19:53;16.20;;;9.23;;
29788;SDS011;64899;42.660;23.268;2023-04-07T14:22:19;16.95;;;9.23;;
29788;SDS011;64899;42.660;23.268;2023-04-07T14:24:44;14.70;;;9.10;;
29788;SDS011;64899;42.660;23.268;2023-04-07T14:27:10;12.68;;;9.05;;
29788;SDS011;64899;42.660;23.268;2023-04-07T14:29:35;14.18;;;8.88;;
29788;SDS011;64899;42.660;23.268;2023-04-07T14:32:02;13.07;;;8.93;;
29788;SDS011;64899;42.660;23.268;2023-04-07T14:34:27;12.20;;;8.18;;
29788;SDS011;64899;42.660;23.268;2023-04-07T14:36:53;15.45;;;8.30;;
29788;SDS011;64899;42.660;23.268;2023-04-07T14:39:20;15.52;;;10.18;;